sensor_id;sensor_type;location;lat;lon;timestamp;pressure;altitude;pressure_sealevel;temperature;humidity
11487;BME280;10510;47.942;9.442;2023-03-20T00:00:51;94796.03;;;6.50;100.00
11487;BME280;10510;47.942;9.442;2023-03-20T00:02:52;94802.88;;;6.51;100.00
11487;BME280;10510;47.942;9.442;2023-03-20T00:04:52;94805.47;;;6.51;100.00
11487;BME280;10510;47.942;9.442;2023-03-20T00:06:52;94811.31;;;6.53;100.00
11487;BME280;10510;47.942;9.442;2023-03-20T00:08:53;94807.75;;;6.54;100.00
11487;BME280;10510;47.942;9.442;2023-03-20T00:10:54;94815.38;;;6.55;100.00
11487;BME280;10510;47.942;9.442;2023-03-20T00:12:55;94813.63;;;6.56;100.00
11487;BME280;10510;47.942;9.442;2023-03-20T00:15:02;94808.44;;;6.56;100.00
11487;BME280;10510;47.942;9.442;2023-03-20T00:17:09;94815.91;;;6.59;100.00
11487;BME280;10510;47.942;9.442;2023-03-20T00:19:15;94813.16;;;6.60;100.00
11487;BME280;10510;47.942;9.442;2023-03-20T00:21:17;94825.00;;;6.63;100.00
11487;BME280;10510;47.942;9.442;2023-03-20T00:23:18;94815.28;;;6.65;100.00
11487;BME280;10510;47.942;9.442;2023-03-20T00:25:22;94815.13;;;6.67;100.00
11487;BME280;10510;47.942;9.442;2023-03-20T00:27:23;94814.00;;;6.69;100.00
11487;BME280;10510;47.942;9.442;2023-03-20T00:29:25;94815.31;;;6.73;100.00
11487;BME280;10510;47.942;9.442;2023-03-20T00:31:29;94816.78;;;6.76;100.00
11487;BME280;10510;47.942;9.442;2023-03-20T00:33:30;94814.72;;;6.79;100.00
11487;BME280;10510;47.942;9.442;2023-03-20T00:35:30;94817.00;;;6.82;100.00
11487;BME280;10510;47.942;9.442;2023-03-20T00:37:30;94808.91;;;6.86;100.00
11487;BME280;10510;47.942;9.442;2023-03-20T00:39:31;94816.38;;;6.89;100.00
11487;BME280;10510;47.942;9.442;2023-03-20T00:43:37;94809.41;;;6.89;100.00
11487;BME280;10510;47.942;9.442;2023-03-20T00:45:38;94801.59;;;6.89;100.00
11487;BME280;10510;47.942;9.442;2023-03-20T00:47:38;94805.81;;;6.90;100.00
11487;BME280;10510;47.942;9.442;2023-03-20T00:49:41;94804.03;;;6.91;100.00
11487;BME280;10510;47.942;9.442;2023-03-20T00:51:42;94800.47;;;6.92;100.00
11487;BME280;10510;47.942;9.442;2023-03-20T00:53:43;94803.06;;;6.92;100.00
11487;BME280;10510;47.942;9.442;2023-03-20T00:55:43;94801.75;;;6.88;100.00
11487;BME280;10510;47.942;9.442;2023-03-20T00:57:49;94802.88;;;6.85;100.00
11487;BME280;10510;47.942;9.442;2023-03-20T00:59:54;94803.03;;;6.83;100.00
11487;BME280;10510;47.942;9.442;2023-03-20T01:01:57;94803.16;;;6.82;100.00
11487;BME280;10510;47.942;9.442;2023-03-20T01:03:58;94806.63;;;6.82;100.00
11487;BME280;10510;47.942;9.442;2023-03-20T01:05:59;94805.94;;;6.80;100.00
11487;BME280;10510;47.942;9.442;2023-03-20T01:07:59;94803.66;;;6.77;100.00
11487;BME280;10510;47.942;9.442;2023-03-20T01:10:00;94808.03;;;6.77;100.00
11487;BME280;10510;47.942;9.442;2023-03-20T01:12:01;94800.56;;;6.74;100.00
11487;BME280;10510;47.942;9.442;2023-03-20T01:14:02;94805.75;;;6.74;100.00
11487;BME280;10510;47.942;9.442;2023-03-20T01:16:02;94804.91;;;6.73;100.00
11487;BME280;10510;47.942;9.442;2023-03-20T01:18:03;94804.91;;;6.73;100.00
11487;BME280;10510;47.942;9.442;2023-03-20T01:20:08;94804.91;;;6.73;100.00
11487;BME280;10510;47.942;9.442;2023-03-20T01:22:13;94808.50;;;6.72;100.00
11487;BME280;10510;47.942;9.442;2023-03-20T01:24:16;94804.41;;;6.70;100.00
11487;BME280;10510;47.942;9.442;2023-03-20T01:26:23;94806.88;;;6.71;100.00
11487;BME280;10510;47.942;9.442;2023-03-20T01:28:26;94796.50;;;6.71;100.00
11487;BME280;10510;47.942;9.442;2023-03-20T01:30:30;94805.22;;;6.70;100.00
11487;BME280;10510;47.942;9.442;2023-03-20T01:32:30;94802.00;;;6.68;100.00
11487;BME280;10510;47.942;9.442;2023-03-20T01:34:31;94799.41;;;6.68;100.00
11487;BME280;10510;47.942;9.442;2023-03-20T01:36:31;94797.13;;;6.65;100.00
11487;BME280;10510;47.942;9.442;2023-03-20T01:38:31;94797.13;;;6.65;100.00
11487;BME280;10510;47.942;9.442;2023-03-20T01:42:40;94799.34;;;6.60;100.00
11487;BME280;10510;47.942;9.442;2023-03-20T01:44:40;94805.84;;;6.56;100.00
11487;BME280;10510;47.942;9.442;2023-03-20T01:46:41;94806.78;;;6.55;100.00
11487;BME280;10510;47.942;9.442;2023-03-20T01:50:57;94808.56;;;6.54;100.00
11487;BME280;10510;47.942;9.442;2023-03-20T01:53:02;94803.53;;;6.53;100.00
11487;BME280;10510;47.942;9.442;2023-03-20T01:55:03;94799.97;;;6.54;100.00
11487;BME280;10510;47.942;9.442;2023-03-20T01:57:08;94796.72;;;6.52;100.00
11487;BME280;10510;47.942;9.442;2023-03-20T01:59:17;94795.09;;;6.51;100.00
11487;BME280;10510;47.942;9.442;2023-03-20T02:01:20;94797.03;;;6.49;100.00
11487;BME280;10510;47.942;9.442;2023-03-20T02:03:20;94799.78;;;6.47;100.00
11487;BME280;10510;47.942;9.442;2023-03-20T02:05:22;94795.72;;;6.45;100.00
11487;BME280;10510;47.942;9.442;2023-03-20T02:07:23;94803.50;;;6.45;100.00
11487;BME280;10510;47.942;9.442;2023-03-20T02:09:23;94793.25;;;6.43;100.00
11487;BME280;10510;47.942;9.442;2023-03-20T02:11:24;94803.63;;;6.43;100.00
11487;BME280;10510;47.942;9.442;2023-03-20T02:13:29;94808.03;;;6.43;100.00
11487;BME280;10510;47.942;9.442;2023-03-20T02:15:30;94803.81;;;6.42;100.00
11487;BME280;10510;47.942;9.442;2023-03-20T02:17:31;94804.75;;;6.41;100.00
11487;BME280;10510;47.942;9.442;2023-03-20T02:41:38;94817.53;;;6.08;100.00
11487;BME280;10510;47.942;9.442;2023-03-20T02:46:11;94810.94;;;5.96;100.00
11487;BME280;10510;47.942;9.442;2023-03-20T02:49:00;94812.63;;;5.87;100.00
11487;BME280;10510;47.942;9.442;2023-03-20T02:55:27;94822.84;;;5.70;100.00
11487;BME280;10510;47.942;9.442;2023-03-20T02:57:51;94819.09;;;5.65;100.00
11487;BME280;10510;47.942;9.442;2023-03-20T03:00:05;94821.31;;;5.60;100.00
11487;BME280;10510;47.942;9.442;2023-03-20T03:02:15;94821.91;;;5.54;100.00
11487;BME280;10510;47.942;9.442;2023-03-20T03:04:22;94824.94;;;5.49;100.00
11487;BME280;10510;47.942;9.442;2023-03-20T03:06:30;94831.53;;;5.43;100.00
11487;BME280;10510;47.942;9.442;2023-03-20T03:08:37;94833.75;;;5.38;100.00
11487;BME280;10510;47.942;9.442;2023-03-20T03:10:43;94832.69;;;5.31;100.00
11487;BME280;10510;47.942;9.442;2023-03-20T03:12:45;94824.84;;;5.23;100.00
11487;BME280;10510;47.942;9.442;2023-03-20T03:14:54;94828.16;;;5.15;100.00
11487;BME280;10510;47.942;9.442;2023-03-20T03:16:57;94830.38;;;5.10;100.00
11487;BME280;10510;47.942;9.442;2023-03-20T03:19:06;94828.50;;;5.03;100.00
11487;BME280;10510;47.942;9.442;2023-03-20T03:21:08;94831.53;;;4.98;100.00
11487;BME280;10510;47.942;9.442;2023-03-20T03:23:19;94831.31;;;4.91;100.00
11487;BME280;10510;47.942;9.442;2023-03-20T03:25:25;94823.94;;;4.87;100.00
11487;BME280;10510;47.942;9.442;2023-03-20T03:27:36;94834.88;;;4.81;100.00
11487;BME280;10510;47.942;9.442;2023-03-20T03:29:38;94829.31;;;4.75;100.00
11487;BME280;10510;47.942;9.442;2023-03-20T03:31:40;94832.47;;;4.69;100.00
11487;BME280;10510;47.942;9.442;2023-03-20T03:33:44;94830.97;;;4.67;100.00
11487;BME280;10510;47.942;9.442;2023-03-20T03:35:46;94833.03;;;4.63;100.00
11487;BME280;10510;47.942;9.442;2023-03-20T03:40:06;94837.16;;;4.56;100.00
11487;BME280;10510;47.942;9.442;2023-03-20T03:42:32;94835.69;;;4.53;100.00
11487;BME280;10510;47.942;9.442;2023-03-20T03:44:42;94835.81;;;4.52;100.00
11487;BME280;10510;47.942;9.442;2023-03-20T03:46:51;94833.38;;;4.50;100.00
11487;BME280;10510;47.942;9.442;2023-03-20T03:48:55;94833.50;;;4.49;100.00
11487;BME280;10510;47.942;9.442;2023-03-20T03:51:00;94831.06;;;4.47;100.00
11487;BME280;10510;47.942;9.442;2023-03-20T03:53:07;94845.09;;;4.45;100.00
11487;BME280;10510;47.942;9.442;2023-03-20T03:55:17;94845.22;;;4.43;100.00
11487;BME280;10510;47.942;9.442;2023-03-20T03:57:26;94847.97;;;4.42;100.00
11487;BME280;10510;47.942;9.442;2023-03-20T03:59:36;94857.50;;;4.41;100.00
11487;BME280;10510;47.942;9.442;2023-03-20T04:01:38;94858.44;;;4.40;100.00
11487;BME280;10510;47.942;9.442;2023-03-20T04:03:49;94856.81;;;4.39;100.00
11487;BME280;10510;47.942;9.442;2023-03-20T04:05:53;94855.06;;;4.40;100.00
11487;BME280;10510;47.942;9.442;2023-03-20T04:07:55;94860.22;;;4.40;100.00
11487;BME280;10510;47.942;9.442;2023-03-20T04:09:57;94855.72;;;4.42;100.00
11487;BME280;10510;47.942;9.442;2023-03-20T04:11:57;94861.44;;;4.45;100.00
11487;BME280;10510;47.942;9.442;2023-03-20T04:13:57;94866.19;;;4.50;100.00
11487;BME280;10510;47.942;9.442;2023-03-20T04:15:58;94863.19;;;4.54;100.00
11487;BME280;10510;47.942;9.442;2023-03-20T04:17:58;94865.50;;;4.58;100.00
11487;BME280;10510;47.942;9.442;2023-03-20T04:19:59;94871.19;;;4.61;100.00
11487;BME280;10510;47.942;9.442;2023-03-20T04:21:59;94875.00;;;4.67;100.00
11487;BME280;10510;47.942;9.442;2023-03-20T04:24:00;94874.72;;;4.70;100.00
11487;BME280;10510;47.942;9.442;2023-03-20T04:26:01;94869.25;;;4.73;100.00
11487;BME280;10510;47.942;9.442;2023-03-20T04:28:02;94872.81;;;4.72;100.00
11487;BME280;10510;47.942;9.442;2023-03-20T04:30:03;94875.53;;;4.70;100.00
11487;BME280;10510;47.942;9.442;2023-03-20T04:32:03;94871.75;;;4.65;100.00
11487;BME280;10510;47.942;9.442;2023-03-20T04:34:04;94871.06;;;4.63;100.00
11487;BME280;10510;47.942;9.442;2023-03-20T04:36:05;94868.59;;;4.61;100.00
11487;BME280;10510;47.942;9.442;2023-03-20T04:38:05;94875.44;;;4.62;100.00
11487;BME280;10510;47.942;9.442;2023-03-20T04:40:06;94876.25;;;4.63;100.00
11487;BME280;10510;47.942;9.442;2023-03-20T04:42:07;94872.56;;;4.65;100.00
11487;BME280;10510;47.942;9.442;2023-03-20T04:44:08;94878.25;;;4.69;100.00
11487;BME280;10510;47.942;9.442;2023-03-20T04:46:08;94881.38;;;4.72;100.00
11487;BME280;10510;47.942;9.442;2023-03-20T04:48:08;94883.56;;;4.77;100.00
11487;BME280;10510;47.942;9.442;2023-03-20T04:50:09;94888.47;;;4.80;100.00
11487;BME280;10510;47.942;9.442;2023-03-20T04:52:09;94892.81;;;4.80;100.00
11487;BME280;10510;47.942;9.442;2023-03-20T04:54:09;94886.69;;;4.81;100.00
11487;BME280;10510;47.942;9.442;2023-03-20T04:56:10;94883.94;;;4.82;100.00
11487;BME280;10510;47.942;9.442;2023-03-20T04:58:11;94886.41;;;4.84;100.00
11487;BME280;10510;47.942;9.442;2023-03-20T05:00:11;94887.88;;;4.86;100.00
11487;BME280;10510;47.942;9.442;2023-03-20T05:02:12;94885.81;;;4.90;100.00
11487;BME280;10510;47.942;9.442;2023-03-20T05:04:14;94881.31;;;4.92;100.00
11487;BME280;10510;47.942;9.442;2023-03-20T05:06:14;94884.44;;;4.95;100.00
11487;BME280;10510;47.942;9.442;2023-03-20T05:08:14;94877.72;;;5.03;100.00
11487;BME280;10510;47.942;9.442;2023-03-20T05:10:15;94873.91;;;5.07;100.00
11487;BME280;10510;47.942;9.442;2023-03-20T05:12:15;94887.38;;;5.10;100.00
11487;BME280;10510;47.942;9.442;2023-03-20T05:14:15;94882.06;;;5.12;100.00
11487;BME280;10510;47.942;9.442;2023-03-20T05:16:16;94880.81;;;5.16;100.00
11487;BME280;10510;47.942;9.442;2023-03-20T05:18:16;94872.75;;;5.19;100.00
11487;BME280;10510;47.942;9.442;2023-03-20T05:20:16;94877.63;;;5.22;100.00
11487;BME280;10510;47.942;9.442;2023-03-20T05:22:17;94864.53;;;5.23;100.00
11487;BME280;10510;47.942;9.442;2023-03-20T05:24:17;94861.66;;;5.27;100.00
11487;BME280;10510;47.942;9.442;2023-03-20T05:26:18;94863.97;;;5.30;100.00
11487;BME280;10510;47.942;9.442;2023-03-20T05:28:18;94866.25;;;5.33;100.00
11487;BME280;10510;47.942;9.442;2023-03-20T05:30:18;94866.78;;;5.36;100.00
11487;BME280;10510;47.942;9.442;2023-03-20T05:32:19;94863.91;;;5.39;100.00
11487;BME280;10510;47.942;9.442;2023-03-20T05:34:20;94865.38;;;5.42;100.00
11487;BME280;10510;47.942;9.442;2023-03-20T05:36:20;94868.50;;;5.45;100.00
11487;BME280;10510;47.942;9.442;2023-03-20T05:38:20;94869.31;;;5.46;100.00
11487;BME280;10510;47.942;9.442;2023-03-20T05:40:24;94875.16;;;5.48;100.00
11487;BME280;10510;47.942;9.442;2023-03-20T05:42:25;94879.25;;;5.51;100.00
11487;BME280;10510;47.942;9.442;2023-03-20T05:44:25;94880.75;;;5.53;100.00
11487;BME280;10510;47.942;9.442;2023-03-20T05:46:25;94889.03;;;5.57;100.00
11487;BME280;10510;47.942;9.442;2023-03-20T05:48:25;94885.97;;;5.61;100.00
11487;BME280;10510;47.942;9.442;2023-03-20T05:50:26;94888.28;;;5.64;100.00
11487;BME280;10510;47.942;9.442;2023-03-20T05:52:26;94898.34;;;5.67;100.00
11487;BME280;10510;47.942;9.442;2023-03-20T05:54:26;94900.00;;;5.68;100.00
11487;BME280;10510;47.942;9.442;2023-03-20T05:56:27;94903.25;;;5.70;100.00
11487;BME280;10510;47.942;9.442;2023-03-20T05:58:27;94898.06;;;5.70;100.00
11487;BME280;10510;47.942;9.442;2023-03-20T06:00:27;94909.94;;;5.73;100.00
11487;BME280;10510;47.942;9.442;2023-03-20T06:02:27;94908.81;;;5.76;100.00
11487;BME280;10510;47.942;9.442;2023-03-20T06:04:28;94907.72;;;5.78;100.00
11487;BME280;10510;47.942;9.442;2023-03-20T06:06:28;94916.19;;;5.80;100.00
11487;BME280;10510;47.942;9.442;2023-03-20T06:08:28;94915.06;;;5.83;100.00
11487;BME280;10510;47.942;9.442;2023-03-20T06:10:30;94919.97;;;5.86;100.00
11487;BME280;10510;47.942;9.442;2023-03-20T06:12:30;94924.84;;;5.89;100.00
11487;BME280;10510;47.942;9.442;2023-03-20T06:14:30;94926.34;;;5.91;100.00
11487;BME280;10510;47.942;9.442;2023-03-20T06:16:31;94927.03;;;5.94;100.00
11487;BME280;10510;47.942;9.442;2023-03-20T06:18:31;94930.16;;;5.97;100.00
11487;BME280;10510;47.942;9.442;2023-03-20T06:20:31;94928.06;;;6.01;100.00
11487;BME280;10510;47.942;9.442;2023-03-20T06:22:32;94920.66;;;6.06;100.00
11487;BME280;10510;47.942;9.442;2023-03-20T06:24:32;94916.81;;;6.10;100.00
11487;BME280;10510;47.942;9.442;2023-03-20T06:26:33;94919.78;;;6.15;100.00
11487;BME280;10510;47.942;9.442;2023-03-20T06:28:33;94918.50;;;6.19;100.00
11487;BME280;10510;47.942;9.442;2023-03-20T06:30:34;94916.13;;;6.26;100.00
11487;BME280;10510;47.942;9.442;2023-03-20T06:32:34;94916.34;;;6.32;100.00
11487;BME280;10510;47.942;9.442;2023-03-20T06:34:35;94922.06;;;6.36;100.00
11487;BME280;10510;47.942;9.442;2023-03-20T06:36:36;94929.38;;;6.41;100.00
11487;BME280;10510;47.942;9.442;2023-03-20T06:38:37;94923.56;;;6.47;100.00
11487;BME280;10510;47.942;9.442;2023-03-20T06:40:37;94927.22;;;6.54;100.00
11487;BME280;10510;47.942;9.442;2023-03-20T06:42:37;94933.44;;;6.61;100.00
11487;BME280;10510;47.942;9.442;2023-03-20T06:44:38;94934.59;;;6.67;100.00
11487;BME280;10510;47.942;9.442;2023-03-20T06:46:39;94936.75;;;6.71;100.00
11487;BME280;10510;47.942;9.442;2023-03-20T06:48:39;94934.81;;;6.73;100.00
11487;BME280;10510;47.942;9.442;2023-03-20T06:50:39;94939.06;;;6.74;100.00
11487;BME280;10510;47.942;9.442;2023-03-20T06:52:40;94939.06;;;6.74;100.00
11487;BME280;10510;47.942;9.442;2023-03-20T06:54:40;94946.03;;;6.74;100.00
11487;BME280;10510;47.942;9.442;2023-03-20T06:56:41;94945.88;;;6.75;100.00
11487;BME280;10510;47.942;9.442;2023-03-20T06:58:41;94949.50;;;6.82;100.00
11487;BME280;10510;47.942;9.442;2023-03-20T07:00:41;94950.00;;;6.86;100.00
11487;BME280;10510;47.942;9.442;2023-03-20T07:02:42;94954.72;;;6.91;100.00
11487;BME280;10510;47.942;9.442;2023-03-20T07:04:42;94949.38;;;6.92;100.00
11487;BME280;10510;47.942;9.442;2023-03-20T07:06:43;94959.28;;;6.89;100.00
11487;BME280;10510;47.942;9.442;2023-03-20T07:08:43;94956.81;;;6.87;100.00
11487;BME280;10510;47.942;9.442;2023-03-20T07:10:44;94951.50;;;6.89;100.00
11487;BME280;10510;47.942;9.442;2023-03-20T07:12:44;94957.63;;;6.88;100.00
11487;BME280;10510;47.942;9.442;2023-03-20T07:14:45;94955.69;;;6.90;100.00
11487;BME280;10510;47.942;9.442;2023-03-20T07:16:45;94960.09;;;6.89;100.00
11487;BME280;10510;47.942;9.442;2023-03-20T07:18:46;94958.31;;;6.90;100.00
11487;BME280;10510;47.942;9.442;2023-03-20T07:20:46;94955.56;;;6.91;100.00
11487;BME280;10510;47.942;9.442;2023-03-20T07:22:46;94965.19;;;6.99;100.00
11487;BME280;10510;47.942;9.442;2023-03-20T07:24:47;94955.16;;;7.04;100.00
11487;BME280;10510;47.942;9.442;2023-03-20T07:26:47;94953.22;;;7.06;100.00
11487;BME280;10510;47.942;9.442;2023-03-20T07:28:48;94951.44;;;7.07;100.00
11487;BME280;10510;47.942;9.442;2023-03-20T07:30:48;94948.22;;;7.13;100.00
11487;BME280;10510;47.942;9.442;2023-03-20T07:32:48;94953.78;;;7.18;100.00
11487;BME280;10510;47.942;9.442;2023-03-20T07:34:49;94931.81;;;7.20;100.00
11487;BME280;10510;47.942;9.442;2023-03-20T07:36:50;94932.97;;;7.18;100.00
11487;BME280;10510;47.942;9.442;2023-03-20T07:38:50;94935.91;;;7.23;100.00
11487;BME280;10510;47.942;9.442;2023-03-20T07:40:52;94938.72;;;7.30;100.00
11487;BME280;10510;47.942;9.442;2023-03-20T07:42:53;94938.72;;;7.38;100.00
11487;BME280;10510;47.942;9.442;2023-03-20T07:44:53;94934.88;;;7.42;100.00
11487;BME280;10510;47.942;9.442;2023-03-20T07:46:53;94930.97;;;7.46;100.00
11487;BME280;10510;47.942;9.442;2023-03-20T07:48:54;94937.66;;;7.48;100.00
11487;BME280;10510;47.942;9.442;2023-03-20T07:50:57;94934.09;;;7.58;100.00
11487;BME280;10510;47.942;9.442;2023-03-20T07:52:57;94944.88;;;7.71;100.00
11487;BME280;10510;47.942;9.442;2023-03-20T07:54:58;94941.78;;;7.76;100.00
11487;BME280;10510;47.942;9.442;2023-03-20T07:56:58;94932.72;;;7.80;100.00
11487;BME280;10510;47.942;9.442;2023-03-20T07:58:58;94940.34;;;7.81;100.00
11487;BME280;10510;47.942;9.442;2023-03-20T08:00:58;94942.63;;;7.84;100.00
11487;BME280;10510;47.942;9.442;2023-03-20T08:02:59;94939.25;;;7.92;100.00
11487;BME280;10510;47.942;9.442;2023-03-20T08:04:59;94943.50;;;8.01;100.00
11487;BME280;10510;47.942;9.442;2023-03-20T08:06:59;94936.66;;;8.08;100.00
11487;BME280;10510;47.942;9.442;2023-03-20T08:09:00;94943.34;;;8.19;100.00
11487;BME280;10510;47.942;9.442;2023-03-20T08:11:00;94938.97;;;8.28;100.00
11487;BME280;10510;47.942;9.442;2023-03-20T08:13:01;94947.91;;;8.25;100.00
11487;BME280;10510;47.942;9.442;2023-03-20T08:15:01;94949.38;;;8.28;100.00
11487;BME280;10510;47.942;9.442;2023-03-20T08:17:01;94952.31;;;8.33;100.00
11487;BME280;10510;47.942;9.442;2023-03-20T08:19:02;94956.22;;;8.37;100.00
11487;BME280;10510;47.942;9.442;2023-03-20T08:21:04;94962.44;;;8.44;100.00
11487;BME280;10510;47.942;9.442;2023-03-20T08:23:05;94968.00;;;8.57;100.00
11487;BME280;10510;47.942;9.442;2023-03-20T08:25:05;94972.38;;;8.73;100.00
11487;BME280;10510;47.942;9.442;2023-03-20T08:27:07;94968.16;;;8.80;100.00
11487;BME280;10510;47.942;9.442;2023-03-20T08:29:08;94970.91;;;8.87;100.00
11487;BME280;10510;47.942;9.442;2023-03-20T08:31:08;94970.75;;;8.89;100.00
11487;BME280;10510;47.942;9.442;2023-03-20T08:33:09;94975.97;;;8.89;100.00
11487;BME280;10510;47.942;9.442;2023-03-20T08:35:09;94970.72;;;8.97;100.00
11487;BME280;10510;47.942;9.442;2023-03-20T08:37:10;94972.50;;;9.04;100.00
11487;BME280;10510;47.942;9.442;2023-03-20T08:39:11;94972.50;;;9.13;100.00
11487;BME280;10510;47.942;9.442;2023-03-20T08:41:11;94958.81;;;9.19;100.00
11487;BME280;10510;47.942;9.442;2023-03-20T08:43:11;94948.97;;;9.29;100.00
11487;BME280;10510;47.942;9.442;2023-03-20T08:45:12;94952.91;;;9.33;100.00
11487;BME280;10510;47.942;9.442;2023-03-20T08:47:12;94952.03;;;9.41;100.00
11487;BME280;10510;47.942;9.442;2023-03-20T08:49:13;94949.59;;;9.47;100.00
11487;BME280;10510;47.942;9.442;2023-03-20T08:51:13;94943.50;;;9.55;100.00
11487;BME280;10510;47.942;9.442;2023-03-20T08:53:14;94952.44;;;9.69;100.00
11487;BME280;10510;47.942;9.442;2023-03-20T08:55:14;94950.13;;;9.74;100.00
11487;BME280;10510;47.942;9.442;2023-03-20T08:57:15;94945.84;;;9.81;100.00
11487;BME280;10510;47.942;9.442;2023-03-20T08:59:16;94949.13;;;9.83;100.00
11487;BME280;10510;47.942;9.442;2023-03-20T09:01:16;94959.88;;;9.88;100.00
11487;BME280;10510;47.942;9.442;2023-03-20T09:03:18;94952.34;;;9.85;100.00
11487;BME280;10510;47.942;9.442;2023-03-20T09:05:18;94945.50;;;9.84;100.00
11487;BME280;10510;47.942;9.442;2023-03-20T09:07:19;94949.44;;;9.80;100.00
11487;BME280;10510;47.942;9.442;2023-03-20T09:09:20;94953.03;;;9.79;100.00
11487;BME280;10510;47.942;9.442;2023-03-20T09:11:26;94961.88;;;9.70;100.00
11487;BME280;10510;47.942;9.442;2023-03-20T09:13:26;94962.78;;;9.54;100.00
11487;BME280;10510;47.942;9.442;2023-03-20T09:15:27;94960.50;;;9.51;100.00
11487;BME280;10510;47.942;9.442;2023-03-20T09:17:27;94962.31;;;9.42;100.00
11487;BME280;10510;47.942;9.442;2023-03-20T09:19:27;94963.63;;;9.38;100.00
11487;BME280;10510;47.942;9.442;2023-03-20T09:21:28;94957.66;;;9.29;100.00
11487;BME280;10510;47.942;9.442;2023-03-20T09:23:28;94964.97;;;9.26;100.00
11487;BME280;10510;47.942;9.442;2023-03-20T09:25:28;94964.34;;;9.24;100.00
11487;BME280;10510;47.942;9.442;2023-03-20T09:27:30;94957.47;;;9.23;100.00
11487;BME280;10510;47.942;9.442;2023-03-20T09:29:30;94961.06;;;9.22;100.00
11487;BME280;10510;47.942;9.442;2023-03-20T09:31:30;94961.72;;;9.24;100.00
11487;BME280;10510;47.942;9.442;2023-03-20T09:33:31;94957.81;;;9.20;100.00
11487;BME280;10510;47.942;9.442;2023-03-20T09:35:31;94965.97;;;9.17;100.00
11487;BME280;10510;47.942;9.442;2023-03-20T09:37:31;94966.31;;;9.14;100.00
11487;BME280;10510;47.942;9.442;2023-03-20T09:39:32;94964.03;;;9.10;100.00
11487;BME280;10510;47.942;9.442;2023-03-20T09:41:33;94965.66;;;9.12;100.00
11487;BME280;10510;47.942;9.442;2023-03-20T09:46:31;94964.50;;;9.14;100.00
11487;BME280;10510;47.942;9.442;2023-03-20T09:48:46;94967.28;;;9.13;100.00
11487;BME280;10510;47.942;9.442;2023-03-20T09:50:56;94967.97;;;9.06;100.00
11487;BME280;10510;47.942;9.442;2023-03-20T09:53:10;94962.22;;;9.03;100.00
11487;BME280;10510;47.942;9.442;2023-03-20T09:55:14;94962.22;;;9.03;100.00
11487;BME280;10510;47.942;9.442;2023-03-20T09:57:20;94962.22;;;9.03;100.00
11487;BME280;10510;47.942;9.442;2023-03-20T09:59:23;94966.97;;;8.99;100.00
11487;BME280;10510;47.942;9.442;2023-03-20T10:01:49;94967.97;;;8.98;100.00
11487;BME280;10510;47.942;9.442;2023-03-20T10:04:03;94965.34;;;8.98;100.00
11487;BME280;10510;47.942;9.442;2023-03-20T10:06:11;94962.75;;;8.98;100.00
11487;BME280;10510;47.942;9.442;2023-03-20T10:08:14;94958.00;;;9.02;100.00
11487;BME280;10510;47.942;9.442;2023-03-20T10:10:16;94969.09;;;9.04;100.00
11487;BME280;10510;47.942;9.442;2023-03-20T10:19:30;94964.69;;;9.21;100.00
11487;BME280;10510;47.942;9.442;2023-03-20T10:21:39;94971.81;;;9.27;100.00
11487;BME280;10510;47.942;9.442;2023-03-20T10:23:58;94960.53;;;9.35;100.00
11487;BME280;10510;47.942;9.442;2023-03-20T10:26:17;94960.38;;;9.44;100.00
11487;BME280;10510;47.942;9.442;2023-03-20T10:28:33;94958.69;;;9.51;100.00
11487;BME280;10510;47.942;9.442;2023-03-20T10:31:00;94957.88;;;9.59;100.00
11487;BME280;10510;47.942;9.442;2023-03-20T10:40:32;94955.28;;;9.82;100.00
11487;BME280;10510;47.942;9.442;2023-03-20T10:42:41;94961.78;;;9.94;100.00
11487;BME280;10510;47.942;9.442;2023-03-20T10:44:48;94960.75;;;10.04;100.00
11487;BME280;10510;47.942;9.442;2023-03-20T10:46:50;94959.41;;;10.08;100.00
11487;BME280;10510;47.942;9.442;2023-03-20T10:48:56;94950.84;;;10.22;100.00
11487;BME280;10510;47.942;9.442;2023-03-20T10:51:01;94946.53;;;10.37;100.00
11487;BME280;10510;47.942;9.442;2023-03-20T10:53:04;94944.06;;;10.59;100.00
11487;BME280;10510;47.942;9.442;2023-03-20T10:55:07;94941.16;;;10.77;100.00
11487;BME280;10510;47.942;9.442;2023-03-20T10:57:23;94939.41;;;11.07;100.00
11487;BME280;10510;47.942;9.442;2023-03-20T10:59:43;94935.56;;;11.32;100.00
11487;BME280;10510;47.942;9.442;2023-03-20T11:01:48;94933.00;;;11.54;100.00
11487;BME280;10510;47.942;9.442;2023-03-20T11:03:48;94933.28;;;11.89;100.00
11487;BME280;10510;47.942;9.442;2023-03-20T11:06:03;94932.34;;;11.96;100.00
11487;BME280;10510;47.942;9.442;2023-03-20T11:08:13;94921.78;;;11.90;100.00
11487;BME280;10510;47.942;9.442;2023-03-20T11:10:13;94922.56;;;12.05;100.00
11487;BME280;10510;47.942;9.442;2023-03-20T11:12:18;94927.09;;;12.33;100.00
11487;BME280;10510;47.942;9.442;2023-03-20T11:14:25;94919.34;;;12.46;100.00
11487;BME280;10510;47.942;9.442;2023-03-20T11:16:30;94920.50;;;12.86;100.00
11487;BME280;10510;47.942;9.442;2023-03-20T11:18:36;94921.72;;;13.18;100.00
11487;BME280;10510;47.942;9.442;2023-03-20T11:21:00;94921.34;;;13.22;100.00
11487;BME280;10510;47.942;9.442;2023-03-20T11:23:02;94927.31;;;13.09;100.00
11487;BME280;10510;47.942;9.442;2023-03-20T11:25:03;94928.16;;;12.88;100.00
11487;BME280;10510;47.942;9.442;2023-03-20T11:27:07;94926.25;;;12.75;100.00
11487;BME280;10510;47.942;9.442;2023-03-20T11:29:20;94938.69;;;12.66;100.00
11487;BME280;10510;47.942;9.442;2023-03-20T11:31:34;94946.19;;;12.48;100.00
11487;BME280;10510;47.942;9.442;2023-03-20T11:33:37;94943.78;;;12.32;100.00
11487;BME280;10510;47.942;9.442;2023-03-20T11:35:44;94944.31;;;12.05;100.00
11487;BME280;10510;47.942;9.442;2023-03-20T11:37:47;94952.03;;;11.92;100.00
11487;BME280;10510;47.942;9.442;2023-03-20T11:40:43;94949.78;;;11.74;100.00
11487;BME280;10510;47.942;9.442;2023-03-20T11:42:24;94946.81;;;11.63;100.00
11487;BME280;10510;47.942;9.442;2023-03-20T11:44:28;94948.88;;;11.52;100.00
11487;BME280;10510;47.942;9.442;2023-03-20T11:46:28;94957.00;;;11.43;100.00